Las Vegas, Nevada
Traffic Map
Current Weather Conditions
Las Vegas, Nevada
Few Clouds
Few Clouds
75°
Feels Like: 75°
Wind Chill: 75° Ceiling: Unl
Heat Index: 75° Visibility: 10mi
Dew Point: 47° Wind: 5mph
Humidity: 37% Direction: 220° (SW)
Pressure: 30.06in Gusts: 0mph
Raw Report DataKLAS 290756Z 22004KT 10SM FEW110 FEW150 24/08 A3006 RMK AO2 SLP155 T02390083 403170222 $
Traffic Incident Summary
Active as of:
Severity:
Category:
InformationThere was an issue retrieving the traffic information for this location. Please try a different location or try again shortly.
Advertisements
Track Severe Weather on mobile